Latest Weather Observations for Tasman Island

IDT60901

Issued at 7:11 am EDT Thursday 8 December 2016 (issued every 10 minutes, with the page automatically refreshed every 10 minutes)

About weather observations | Map of Hobart area stations | Latest observations for Hobart area | Other Formats
Station Details ID: 094155 Name: TASMAN ISLAND Lat: -43.24 Lon: 148.00 Height: 240.0 m
Data from the previous 72 hours. | See also: Recent months at Tasman Island
Date/Time
EDT
Temp
°C
App
Temp
°C
Dew
Point
°C
Rel
Hum
%
Delta-T
°C
Wind Press
QNH
hPa
Press
MSL
hPa
Rain since
9am
mm
Dir  Spd
km/h
Gust
km/h
Spd
kts
Gust
kts
08/07:00am 11.2 2.7 9.1 87 1.1 N 44 65 24 35 997.5 997.2 -
08/06:30am 12.5 3.2 7.4 71 2.5 N 46 70 25 38 997.7 997.4 -
08/06:26am 12.6 3.6 7.3 70 2.6 N 44 70 24 38 997.9 997.6 -
08/06:00am 12.9 4.2 8.6 75 2.2 NNE 44 56 24 30 998.4 998.1 -
08/05:30am 12.6 5.1 9.6 82 1.5 NNE 39 52 21 28 999.2 999.0 -
08/05:00am 12.8 5.0 8.3 74 2.3 N 39 54 21 29 999.0 998.8 -
08/04:30am 13.3 4.2 8.4 72 2.5 N 46 61 25 33 1000.0 999.8 -
08/04:00am 12.5 5.5 10.0 85 1.3 N 37 46 20 25 1000.6 1000.4 -
08/03:30am 13.3 7.5 9.5 78 2.0 NNE 30 41 16 22 1001.0 1000.8 -
08/03:00am 12.7 8.6 10.1 84 1.4 N 22 30 12 16 1002.4 1002.2 0.0
08/02:30am 12.9 8.4 10.1 83 1.5 N 24 37 13 20 1003.1 1002.9 -
08/02:00am 13.5 10.6 9.7 78 2.0 NNE 15 22 8 12 1003.6 1003.4 -
08/01:30am 12.8 10.5 10.3 85 1.3 NE 13 19 7 10 1004.6 1004.4 -
08/01:00am 13.4 11.7 9.8 79 1.9 WNW 9 15 5 8 1004.9 1004.7 -
08/12:30am 13.3 12.7 10.3 82 1.6 SW 4 13 2 7 1005.5 1005.4 -
08/12:00am 14.2 12.2 10.0 76 2.2 NW 11 28 6 15 1006.2 1006.0 -
 
Date/Time
EDT
Temp
°C
App
Temp
°C
Dew
Point
°C
Rel
Hum
%
Delta-T
°C
Wind Press
QNH
hPa
Press
MSL
hPa
Rain since
9am
mm
Dir  Spd
km/h
Gust
km/h
Spd
kts
Gust
kts
07/11:39pm 15.3 9.6 9.7 69 2.9 NW 30 50 16 27 1006.5 1006.3 -
07/11:30pm 15.4 10.4 9.7 69 3.0 NW 26 39 14 21 1006.4 1006.2 -
07/11:00pm 14.2 13.0 10.2 77 2.1 NNW 7 17 4 9 1006.5 1006.3 -
07/10:30pm 14.1 11.7 10.1 77 2.1 NW 13 20 7 11 1006.5 1006.3 -
07/10:00pm 13.9 11.0 9.7 76 2.2 WNW 15 19 8 10 1007.1 1006.9 -
07/09:30pm 14.7 11.3 10.5 76 2.2 N 19 24 10 13 1007.1 1006.9 -
07/09:00pm 14.3 10.3 10.5 78 2.0 N 22 32 12 17 1007.3 1007.1 -
07/08:30pm 14.0 9.5 11.3 84 1.5 N 26 37 14 20 1007.5 1007.3 -
07/08:00pm 14.3 9.8 9.9 75 2.3 NNE 24 37 13 20 1007.7 1007.5 0.0
07/07:30pm 14.6 8.7 9.2 70 2.8 N 30 44 16 24 1007.9 1007.7 0.0
07/07:00pm 14.8 9.1 8.3 65 3.3 N 28 44 15 24 1008.1 1007.9 0.0
07/06:30pm 15.1 9.4 8.3 64 3.5 NNE 28 39 15 21 1008.3 1008.1 0.0
07/06:00pm 14.9 11.5 9.3 69 2.9 NNE 17 26 9 14 1008.5 1008.3 0.0
07/05:30pm 15.3 12.4 9.7 69 2.9 NE 15 22 8 12 1008.9 1008.7 0.0
07/05:00pm 14.6 12.8 11.0 79 1.9 NE 11 20 6 11 1008.8 1008.6 0.0
07/04:30pm 15.5 14.9 11.7 78 2.1 E 6 13 3 7 1009.2 1009.1 0.0
07/04:00pm 15.1 13.8 11.1 77 2.2 ESE 9 15 5 8 1009.4 1009.3 0.0
07/03:30pm 16.2 14.4 10.7 70 3.0 NE 11 17 6 9 1009.6 1009.5 0.0
07/03:00pm 16.1 14.6 10.4 69 3.1 NE 9 22 5 12 1009.5 1009.4 0.0
07/02:30pm 15.7 13.9 9.6 67 3.2 NE 9 15 5 8 1009.6 1009.5 0.0
07/02:00pm 16.9 13.9 9.1 60 4.1 N 15 24 8 13 1009.7 1009.6 0.0
07/01:30pm 16.4 12.4 8.4 59 4.1 N 19 28 10 15 1009.9 1009.8 0.0
07/01:00pm 17.9 14.3 9.8 59 4.3 N 19 35 10 19 1010.1 1009.9 0.0
07/12:30pm 17.3 13.3 9.0 58 4.4 N 20 30 11 16 1010.3 1010.1 0.0
07/12:00pm 16.9 13.4 8.6 58 4.3 NW 17 28 9 15 1010.4 1010.2 0.0
07/11:30am 15.8 11.0 7.3 57 4.3 NW 22 35 12 19 1010.4 1010.2 0.0
07/11:00am 15.6 11.2 7.6 59 4.0 NNW 20 39 11 21 1010.4 1010.2 0.0
07/10:30am 14.5 9.4 7.5 63 3.5 N 24 33 13 18 1010.5 1010.3 0.0
07/10:00am 13.8 8.7 7.6 66 3.1 N 24 33 13 18 1010.5 1010.3 0.0
07/09:30am 14.9 11.2 7.9 63 3.5 N 17 26 9 14 1010.8 1010.6 0.0
07/09:00am 14.3 9.5 7.4 63 3.4 N 22 32 12 17 1010.8 1010.6 0.2
07/08:30am 14.4 10.5 7.0 61 3.7 NNW 17 26 9 14 1010.7 1010.5 0.2
07/08:00am 13.7 9.1 6.6 62 3.5 NW 20 28 11 15 1010.5 1010.3 0.2
07/07:30am 13.3 7.7 5.2 58 3.8 WNW 24 41 13 22 1010.3 1010.1 0.2
07/07:00am 13.1 8.2 5.3 59 3.7 WNW 20 41 11 22 1010.2 1010.0 0.2
07/06:30am 12.3 7.6 5.0 61 3.4 NW 19 30 10 16 1010.2 1010.0 0.2
07/06:00am 11.7 6.9 4.9 63 3.2 WNW 19 30 10 16 1009.8 1009.7 0.2
07/05:30am 11.7 6.8 4.9 63 3.1 NW 20 33 11 18 1009.5 1009.4 0.2
07/05:00am 11.6 7.3 5.3 65 2.9 WNW 17 28 9 15 1009.4 1009.3 0.2
07/04:30am 11.5 6.7 4.9 64 3.0 NW 19 26 10 14 1009.3 1009.2 0.2
07/04:00am 11.7 6.9 4.7 62 3.2 WNW 19 30 10 16 1009.1 1009.0 0.2
07/03:30am 11.6 6.9 5.0 64 3.1 NW 19 30 10 16 1009.2 1009.1 0.2
07/03:00am 11.6 6.3 5.0 64 3.1 NW 22 33 12 18 1009.4 1009.3 0.2
07/02:30am 11.5 7.7 5.6 67 2.8 NW 15 20 8 11 1009.7 1009.6 0.2
07/02:00am 11.5 7.4 6.0 69 2.6 NW 17 22 9 12 1009.8 1009.7 0.2
07/01:30am 11.9 7.2 6.0 67 2.8 NW 20 30 11 16 1009.8 1009.7 0.2
07/01:00am 11.8 8.1 6.3 69 2.6 NW 15 22 8 12 1010.1 1009.9 0.2
07/12:30am 11.4 7.7 6.5 72 2.3 NNW 15 22 8 12 1010.2 1010.0 0.2
07/12:00am 10.8 9.0 8.0 83 1.4 NNE 7 13 4 7 1010.4 1010.2 0.2
 
Date/Time
EDT
Temp
°C
App
Temp
°C
Dew
Point
°C
Rel
Hum
%
Delta-T
°C
Wind Press
QNH
hPa
Press
MSL
hPa
Rain since
9am
mm
Dir  Spd
km/h
Gust
km/h
Spd
kts
Gust
kts
06/11:30pm 10.3 8.2 8.1 86 1.1 N 9 15 5 8 1010.4 1010.2 0.2
06/11:00pm 10.6 8.1 8.2 85 1.2 N 11 20 6 11 1010.5 1010.3 0.2
06/10:30pm 10.8 8.3 8.0 83 1.4 NNE 11 24 6 13 1010.6 1010.4 0.2
06/10:00pm 12.0 8.6 6.1 67 2.8 WNW 13 19 7 10 1010.6 1010.4 0.2
06/09:30pm 11.6 8.3 6.5 71 2.4 WNW 13 19 7 10 1010.5 1010.3 0.2
06/09:00pm 11.7 8.7 6.0 68 2.7 WNW 11 20 6 11 1009.9 1009.8 0.2
06/08:30pm 10.9 9.0 6.8 76 2.0 NW 6 9 3 5 1009.7 1009.6 0.2
06/08:00pm 11.3 10.3 7.2 76 2.0 S 2 6 1 3 1009.5 1009.4 0.2
06/07:30pm 12.3 10.4 7.4 72 2.4 SSW 7 13 4 7 1009.3 1009.2 0.2
06/07:00pm 12.7 10.3 7.2 69 2.7 SW 9 15 5 8 1009.0 1008.8 0.2
06/06:30pm 12.8 9.8 7.5 70 2.6 SW 13 17 7 9 1008.7 1008.5 0.2
06/06:00pm 13.0 10.2 7.0 67 2.9 SW 11 20 6 11 1008.7 1008.5 0.2
06/05:30pm 13.2 10.7 8.3 72 2.5 WSW 11 17 6 9 1008.7 1008.5 0.2
06/05:00pm 13.0 10.4 7.9 71 2.5 SSW 11 20 6 11 1008.8 1008.6 0.2
06/04:30pm 12.3 9.2 7.2 71 2.5 SW 13 22 7 12 1009.2 1009.1 0.2
06/04:00pm 13.3 10.6 7.5 68 2.9 SW 11 19 6 10 1009.2 1009.1 0.2
06/03:30pm 12.6 9.3 6.6 67 2.9 S 13 19 7 10 1009.3 1009.2 0.2
06/03:00pm 12.7 9.8 6.7 67 2.9 S 11 20 6 11 1008.9 1008.7 0.2
06/02:30pm 12.8 10.5 8.9 77 2.0 SSE 11 19 6 10 1009.1 1009.0 0.2
06/02:00pm 12.7 10.7 8.6 76 2.1 S 9 17 5 9 1009.2 1009.1 0.2
06/01:30pm 12.5 10.1 6.8 68 2.8 SW 9 13 5 7 1009.6 1009.5 0.2
06/01:00pm 10.7 9.2 8.6 87 1.0 S 6 9 3 5 1009.9 1009.8 0.2
06/12:30pm 10.0 8.7 9.1 94 0.5 S 6 11 3 6 1009.9 1009.8 0.2
06/12:00pm 9.6 7.7 9.1 97 0.3 SW 9 13 5 7 1010.2 1010.0 0.2
06/11:30am 9.4 7.9 9.1 98 0.1 WSW 7 11 4 6 1010.2 1010.0 0.2
06/11:00am 8.8 6.4 8.5 98 0.1 SW 11 17 6 9 1010.3 1010.1 0.2
06/10:30am 8.9 7.3 8.6 98 0.1 SSW 7 11 4 6 1010.2 1010.0 0.2
06/10:00am 8.5 6.0 8.2 98 0.1 SW 11 17 6 9 1010.3 1010.1 0.2
06/09:30am 8.3 5.4 8.0 98 0.1 SW 13 17 7 9 1010.5 1010.3 0.2
06/09:00am 8.3 5.8 8.0 98 0.1 SW 11 17 6 9 1011.2 1011.0 10.8
06/08:30am 8.5 5.2 8.2 98 0.1 SW 15 20 8 11 1011.3 1011.1 9.0
06/08:00am 8.5 5.6 8.2 98 0.1 SSW 13 22 7 12 1011.0 1010.8 8.0
06/07:30am 8.9 6.1 8.6 98 0.1 SSW 13 19 7 10 1011.5 1011.3 6.6
06/07:00am 9.0 5.9 8.7 98 0.1 SSE 15 20 8 11 1011.2 1011.0 4.2
06/06:30am 9.7 8.2 9.2 97 0.3 SE 7 13 4 7 1011.1 1010.9 2.0
06/06:00am 10.2 9.0 9.7 97 0.3 NE 6 11 3 6 1010.9 1010.7 1.2
06/05:30am 10.1 7.9 9.5 96 0.3 NNE 11 28 6 15 1010.8 1010.6 0.8
06/05:00am 10.1 7.1 9.3 95 0.4 NE 15 33 8 18 1010.4 1010.2 0.6
06/04:30am 10.1 6.7 9.0 93 0.6 NNE 17 30 9 16 1010.6 1010.4 0.4
06/04:00am 10.4 6.5 8.7 89 0.8 NNE 19 30 10 16 1010.4 1010.2 0.4
06/03:30am 10.5 6.7 8.9 90 0.8 NNE 19 33 10 18 1010.7 1010.5 0.4
06/03:00am 10.2 7.5 8.8 91 0.7 NNE 13 20 7 11 1011.0 1010.8 0.2
06/02:30am 10.3 8.6 8.4 88 0.9 NNE 7 13 4 7 1011.0 1010.8 0.0
06/02:00am 10.8 9.0 8.0 83 1.4 N 7 13 4 7 1011.2 1011.0 0.0
06/01:30am 10.7 9.2 6.6 76 2.0 NNW 4 7 2 4 1011.4 1011.2 0.0
06/01:00am 10.4 9.0 7.3 81 1.5 WNW 4 7 2 4 1011.5 1011.3 0.0
06/12:30am 10.3 9.3 7.5 83 1.4 WSW 2 6 1 3 1011.9 1011.7 0.0
06/12:00am 10.2 8.5 7.6 84 1.3 W 6 11 3 6 1012.4 1012.2 0.0
 
Date/Time
EDT
Temp
°C
App
Temp
°C
Dew
Point
°C
Rel
Hum
%
Delta-T
°C
Wind Press
QNH
hPa
Press
MSL
hPa
Rain since
9am
mm
Dir  Spd
km/h
Gust
km/h
Spd
kts
Gust
kts
05/11:30pm 10.0 8.2 7.3 83 1.3 WNW 6 13 3 7 1012.4 1012.2 0.0
05/11:00pm 10.2 5.5 7.8 85 1.2 SW 22 30 12 16 1012.1 1011.9 0.0
05/10:30pm 10.1 5.0 7.7 85 1.2 SW 24 33 13 18 1012.2 1012.0 0.0
05/10:00pm 10.1 4.9 7.3 83 1.4 SW 24 37 13 20 1012.5 1012.3 0.0
05/09:44pm 10.2 3.9 7.3 82 1.4 SW 30 50 16 27 1012.0 1011.8 0.0
05/09:30pm 10.0 3.6 6.9 81 1.5 SW 30 43 16 23 1011.8 1011.6 0.0
05/09:00pm 10.2 3.4 7.6 84 1.3 SSW 33 57 18 31 1011.2 1011.0 0.0
05/08:30pm 10.4 2.8 7.6 83 1.4 SSW 37 65 20 35 1009.8 1009.7 0.0
05/08:00pm 10.9 4.9 7.0 77 1.9 SSW 28 67 15 36 1009.7 1009.6 0.0
05/07:30pm 11.2 3.4 6.7 74 2.2 SW 37 57 20 31 1009.6 1009.5 0.0
05/07:00pm 11.4 3.6 6.7 73 2.3 SSW 37 65 20 35 1009.0 1008.8 0.0
05/06:35pm 11.6 5.5 6.5 71 2.4 SSW 28 57 15 31 1008.8 1008.6 0.0
05/06:30pm 11.7 6.4 6.6 71 2.5 SSW 24 56 13 30 1008.8 1008.6 0.0
05/06:00pm 11.7 3.9 6.6 71 2.5 SSW 37 69 20 37 1007.5 1007.3 0.0
05/05:30pm 12.0 4.4 5.9 66 2.9 SW 35 72 19 39 1007.2 1007.0 0.0
05/05:00pm 11.8 2.6 5.4 65 3.0 SW 43 67 23 36 1007.2 1007.0 0.0
05/04:30pm 12.1 3.4 6.2 67 2.8 SW 41 76 22 41 1006.9 1006.7 0.0
05/04:00pm 12.1 3.0 5.7 65 3.0 SSW 43 78 23 42 1006.4 1006.2 0.0
05/03:43pm 12.4 6.4 6.9 69 2.7 SW 28 59 15 32 1006.2 1006.0 0.0
05/03:30pm 12.3 7.0 7.0 70 2.6 SSW 24 69 13 37 1005.9 1005.7 0.0
05/03:00pm 12.7 6.8 7.6 71 2.5 SSW 28 67 15 36 1005.5 1005.4 0.0
05/02:30pm 12.6 5.9 7.3 70 2.6 SSW 32 67 17 36 1005.4 1005.2 0.0
05/02:00pm 12.7 5.5 7.8 72 2.4 SSW 35 63 19 34 1005.1 1004.9 0.0
05/01:30pm 12.8 7.0 7.9 72 2.4 SW 28 67 15 36 1004.7 1004.5 0.0
05/01:00pm 13.0 6.6 8.7 75 2.2 SSW 32 54 17 29 1004.7 1004.5 0.0
05/12:30pm 12.5 4.4 8.8 78 1.9 SSW 41 69 22 37 1004.0 1003.8 0.0
05/12:08pm 13.3 8.3 9.5 78 2.0 SSW 26 65 14 35 1003.7 1003.5 0.0
05/12:00pm 13.6 10.7 9.5 76 2.1 SW 15 46 8 25 1003.3 1003.1 0.0
05/11:30am 15.6 11.5 6.3 54 4.6 WNW 17 39 9 21 1003.6 1003.4 0.0
05/11:23am 16.6 13.4 7.0 53 4.8 NW 13 54 7 29 1003.5 1003.3 0.0
05/11:00am 15.4 12.1 6.4 55 4.4 SW 13 43 7 23 1001.5 1001.2 0.0
05/10:30am 15.6 13.1 6.6 55 4.4 WNW 9 50 5 27 1001.8 1001.5 0.0
05/10:00am 14.9 11.1 5.7 54 4.5 W 15 48 8 26 1002.4 1002.2 0.0
05/09:30am 14.9 11.8 5.7 54 4.4 W 11 35 6 19 1001.7 1001.4 0.0
05/09:00am 14.6 11.5 5.7 55 4.3 NW 11 33 6 18 1001.1 1000.9 3.2
05/08:30am 14.1 9.8 5.2 55 4.2 N 17 44 9 24 999.6 999.4 3.2
05/08:00am 14.5 11.9 6.1 57 4.1 S 9 41 5 22 1000.1 999.9 3.2
05/07:30am 15.1 11.9 6.9 58 4.1 NW 13 43 7 23 999.3 999.1 3.2

Latest Capital City Observations: Canberra | Sydney | Melbourne | Brisbane | Adelaide | Perth | Hobart | Darwin

Other Formats:

Comma delimited format used in spreadsheet applications
http://www.bom.gov.au/fwo/IDT60901/IDT60901.95986.axf

JavaScript Object Notation format (JSON) in row-major order
http://www.bom.gov.au/fwo/IDT60901/IDT60901.95986.json